Ride Results

Coorong Come and Try (14-09-2013)
Ride distance: 80.0 km

Outcomes - Coorong Come and Try (14-09-2013)
Division No. of Entries Retired / DNE Completed Withdrawn Ineligible V/O Percentage Completed
HW 6 - 6 - - - 100.00%
MW 11 - 11 - - - 100.00%
LW 3 - 3 - - - 100.00%
JN 4 - 3 - - 1 75.00%
Totals 24 - 23 - - 1 95.83%
Results - Coorong Come and Try (14-09-2013)
No. Rider Horse Place Time Leg Speeds Total
Km/Hr
H/R bpm
Heavyweight
39 Tony Van Eck Pyrenees Viking 1 (BC) 5:03:00 17.4, 14.6 15.84 42, 48, 48 (Avg:48)
113 Rachael Barnett Shady 2 6:19:00 15.7, 10.7 12.66 36, 48, 54 (Avg:51)
188 Steve Ellis Playing With Fire 2 6:19:00 15.5, 10.8 12.66 40, 46, 48 (Avg:47)
310 Rob Vlaanderen Castlebar Djara 2 6:19:00 14.6, 11.3 12.66 42, 54, 52 (Avg:53)
35 Mark Shillabeer Sandine Apollo 5 6:23:00 12.5, 12.4 12.53 36, 49, 48 (Avg:48)
225 Ray Heinrich Kirrani's Semillon Fire 6 6:41:00 12.3, 11.6 11.97 36, 44, 48 (Avg:46)
Middleweight
37 Kimberley Measham Esaskia Shahmir 1 (BC) 5:01:00 17.4, 14.8 15.95 42, 46, 48 (Avg:47)
232 Jodie Luck Lindall Alabaska 2 5:04:00 17.5, 14.4 15.79 38, 48, 48 (Avg:48)
149 Bob Masters Sharwood Sinai 3 5:22:00 16.6, 13.6 14.91 32, 44, 40 (Avg:42)
180 Melanie Scott Innovation 4 5:36:00 16.6, 12.6 14.29 44, 48, 52 (Avg:50)
95 Stella Harbison Brechenridge Polo 5 6:06:00 12.5, 13.6 13.11 36, 44, 46 (Avg:45)
300 Emma Kirby Razorback Magic Wings 5 6:06:00 12.6, 13.5 13.11 36, 48, 48 (Avg:48)
155 Karen Alderton Zaki 7 6:23:00 12.5, 12.4 12.53 42, 48, 43 (Avg:45)
82 Lisa Brown Cruising Icon 7 6:23:00 13.2, 11.9 12.53 36, 48, 54 (Avg:51)
44 Julie White Tarkhim Shar Shalenah 9 6:35:00 12.6, 11.7 12.15 38, 42, 52 (Avg:47)
245 Melissa Bright Brookman Park Wizard 10 6:41:00 12.3, 11.6 11.97 44, 40, 44 (Avg:42)
70 Jil Bourton Narrawa Orion 11 6:46:00 12.5, 11.2 11.82 42, 45, 44 (Avg:44)
Lightweight
21 Cheryl Bullock Chip Chase Knight 1 (BC) 5:00:00 17.5, 14.8 16.00 30, 42, 55 (Avg:48)
288 Fiona Shearman Tom-May Mel-Bar Prince 2 6:19:00 15.5, 10.8 12.66 44, 48, 48 (Avg:48)
168 Jessica Aistrope Maringo 3 6:35:00 13.1, 11.4 12.15 36, 38, 40 (Avg:39)
Junior
61 Ayla Barth Tarkhim Shar Bastille 1 6:35:00 12.5, 11.7 12.15 30, 39, 48 (Avg:43)
261 Kelsey Bright Meldana Kadeem 2 6:41:00 12.3, 11.6 11.97 36, 38, 44 (Avg:41)
298 Jayna Bright Veloce Divine 3 6:46:00 12.5, 11.2 11.82 48, 46, 48 (Avg:47)
255 Alannah Luck Abbeywood Angel Lame L2 0:00:00 17.4, 14.5 - 32, 42, 42 (Avg:42)